Time;durP1;ratioP1;P1;durP2;ratioP2;P2;SDS_P1;SDS_P2;PMS_P1;PMS_P2;Temp;Humidity;BMP_temperature;BMP_pressure;BME280_temperature;BME280_humidity;BME280_pressure;Samples;Min_cycle;Max_cycle;Signal;HPM_P1;HPM_P2
2023/08/11 00:00:08;;;;;;;1.83;0.98;;;19.10;99.90;;;;;;4993263;28;20066;-78
2023/08/11 00:02:36;;;;;;;2.72;1.10;;;19.10;99.90;;;;;;4993901;28;20026;-77
2023/08/11 00:05:03;;;;;;;1.40;0.88;;;19.00;99.90;;;;;;4992875;28;20081;-78
2023/08/11 00:07:29;;;;;;;1.63;0.93;;;19.00;99.90;;;;;;4993633;28;20026;-78
2023/08/11 00:09:55;;;;;;;3.90;1.20;;;18.90;99.90;;;;;;4994059;28;20117;-78
2023/08/11 00:12:21;;;;;;;3.25;1.20;;;18.90;99.90;;;;;;4993164;28;20058;-78
2023/08/11 00:14:47;;;;;;;4.13;1.35;;;18.90;99.90;;;;;;4993318;28;20054;-78
2023/08/11 00:17:12;;;;;;;2.50;1.50;;;18.80;99.90;;;;;;4991485;28;20460;-78
2023/08/11 00:19:38;;;;;;;3.58;1.60;;;18.80;99.90;;;;;;4993423;28;20069;-79
2023/08/11 00:22:05;;;;;;;4.53;1.55;;;18.80;99.90;;;;;;4992723;28;20479;-78
2023/08/11 00:24:33;;;;;;;4.65;1.40;;;18.70;99.90;;;;;;4993167;28;20030;-78
2023/08/11 00:27:01;;;;;;;4.70;1.38;;;18.70;99.90;;;;;;4992873;28;20457;-78
2023/08/11 00:29:26;;;;;;;4.90;1.42;;;18.70;99.90;;;;;;4993274;28;20153;-77
2023/08/11 00:31:53;;;;;;;4.32;2.00;;;18.70;99.90;;;;;;4976013;28;20061;-78
2023/08/11 00:34:19;;;;;;;5.50;1.70;;;18.70;99.90;;;;;;4992491;28;20019;-78
2023/08/11 00:36:45;;;;;;;3.80;1.70;;;18.60;99.90;;;;;;4992772;28;20071;-78
2023/08/11 00:39:12;;;;;;;9.85;1.60;;;18.60;99.90;;;;;;4991274;28;20430;-78
2023/08/11 00:41:38;;;;;;;4.38;1.60;;;18.60;99.90;;;;;;4993111;28;20022;-78
2023/08/11 00:44:03;;;;;;;8.27;1.75;;;18.60;99.90;;;;;;4992400;28;20034;-78
2023/08/11 00:46:29;;;;;;;6.22;1.77;;;18.60;99.90;;;;;;4992461;28;20027;-78
2023/08/11 00:48:55;;;;;;;8.85;1.80;;;18.60;99.90;;;;;;4993230;28;20180;-78
2023/08/11 00:51:23;;;;;;;5.43;1.80;;;18.70;99.90;;;;;;4990888;28;20037;-78
2023/08/11 00:53:50;;;;;;;7.43;1.83;;;18.60;99.90;;;;;;4991704;28;20105;-78
2023/08/11 00:56:21;;;;;;;5.72;2.03;;;18.60;99.90;;;;;;4992008;28;20030;-77
2023/08/11 00:58:50;;;;;;;10.52;2.22;;;18.50;99.90;;;;;;4992037;28;20403;-78
2023/08/11 01:01:16;;;;;;;10.02;2.58;;;18.50;99.90;;;;;;4993240;28;20113;-78
2023/08/11 01:03:47;;;;;;;12.48;2.55;;;18.40;99.90;;;;;;4993586;28;20083;-78
2023/08/11 01:06:21;;;;;;;7.72;2.58;;;18.40;99.90;;;;;;4992053;28;20460;-78
2023/08/11 01:09:11;;;;;;;8.77;2.78;;;18.30;99.90;;;;;;4993453;28;20042;-77
2023/08/11 01:11:44;;;;;;;10.80;2.65;;;18.20;99.90;;;;;;4992502;28;20027;-79
2023/08/11 01:14:49;;;;;;;9.82;2.60;;;18.10;99.90;;;;;;4992273;28;20124;-79
2023/08/11 01:17:17;;;;;;;8.88;2.55;;;18.00;99.90;;;;;;4961504;28;20061;-76
2023/08/11 01:19:43;;;;;;;16.10;2.95;;;17.90;99.90;;;;;;4992393;28;20026;-79
2023/08/11 01:22:16;;;;;;;10.50;3.13;;;17.80;99.90;;;;;;4991928;28;20019;-76
2023/08/11 01:24:46;;;;;;;11.48;2.63;;;17.80;99.90;;;;;;4991971;28;20027;-77
2023/08/11 01:27:13;;;;;;;16.38;3.85;;;17.80;99.90;;;;;;4991581;28;20035;-78
2023/08/11 01:29:39;;;;;;;13.35;3.35;;;17.70;99.90;;;;;;4992294;28;20460;-77
2023/08/11 01:32:06;;;;;;;15.75;3.80;;;17.60;99.90;;;;;;4992100;28;20116;-78
2023/08/11 01:34:31;;;;;;;14.93;3.60;;;17.50;99.90;;;;;;4991979;28;20046;-77
2023/08/11 01:37:01;;;;;;;16.50;2.95;;;17.50;99.90;;;;;;4991524;28;20150;-77
2023/08/11 01:39:31;;;;;;;14.82;3.55;;;17.40;99.90;;;;;;4991446;28;20413;-77
2023/08/11 01:41:57;;;;;;;8.80;2.50;;;17.40;99.90;;;;;;4991865;28;20045;-77
2023/08/11 01:44:25;;;;;;;11.13;4.07;;;17.40;99.90;;;;;;4991456;28;20112;-77
2023/08/11 01:46:56;;;;;;;12.43;2.78;;;17.30;99.90;;;;;;4991947;28;20038;-77
2023/08/11 01:49:24;;;;;;;14.60;3.15;;;17.40;99.90;;;;;;4991171;28;20112;-78
2023/08/11 01:51:50;;;;;;;12.93;2.92;;;17.30;99.90;;;;;;4992132;28;20077;-77
2023/08/11 01:54:16;;;;;;;9.45;3.25;;;17.20;99.90;;;;;;4991108;28;20136;-78
2023/08/11 01:56:42;;;;;;;18.77;4.05;;;17.10;99.90;;;;;;4991870;28;20050;-77
2023/08/11 01:59:13;;;;;;;12.55;3.92;;;17.10;99.90;;;;;;4989744;28;20035;-78
2023/08/11 02:01:40;;;;;;;15.07;4.30;;;17.00;99.90;;;;;;4991585;28;20030;-77
2023/08/11 02:04:06;;;;;;;12.07;3.17;;;17.00;99.90;;;;;;5005939;28;20444;-79
2023/08/11 02:06:32;;;;;;;13.05;3.50;;;16.90;99.90;;;;;;4991453;28;20038;-77
2023/08/11 02:08:57;;;;;;;14.90;3.63;;;16.90;99.90;;;;;;4991399;28;20029;-77
2023/08/11 02:11:23;;;;;;;9.90;2.90;;;16.90;99.90;;;;;;4990823;28;20490;-77
2023/08/11 02:13:49;;;;;;;13.05;4.15;;;16.80;99.90;;;;;;5006217;28;20022;-77
2023/08/11 02:16:15;;;;;;;14.80;3.30;;;16.80;99.90;;;;;;4990856;28;20034;-77
2023/08/11 02:18:40;;;;;;;10.50;3.10;;;16.80;99.90;;;;;;4991257;28;20034;-77
2023/08/11 02:21:10;;;;;;;13.52;3.35;;;16.80;99.90;;;;;;4991024;28;20110;-79
2023/08/11 02:23:35;;;;;;;13.93;3.80;;;16.90;99.90;;;;;;4991476;28;20132;-78
2023/08/11 02:26:01;;;;;;;14.90;3.70;;;16.90;99.90;;;;;;4991235;28;20093;-77
2023/08/11 02:28:27;;;;;;;18.05;4.15;;;16.80;99.90;;;;;;4990699;28;20052;-77
2023/08/11 02:30:53;;;;;;;13.48;3.30;;;16.80;99.90;;;;;;4990721;28;20022;-77
2023/08/11 02:33:18;;;;;;;15.10;3.70;;;16.80;99.90;;;;;;4990938;28;20031;-78
2023/08/11 02:35:45;;;;;;;13.00;3.75;;;16.80;99.90;;;;;;4991315;28;20054;-77
2023/08/11 02:38:13;;;;;;;11.98;3.47;;;16.70;99.90;;;;;;4990075;28;20065;-77
2023/08/11 02:40:39;;;;;;;10.73;3.60;;;16.70;99.90;;;;;;4990949;28;20030;-77
2023/08/11 02:43:05;;;;;;;11.52;3.42;;;16.70;99.90;;;;;;4991399;28;20492;-77
2023/08/11 02:45:30;;;;;;;10.18;3.42;;;16.70;99.90;;;;;;4990271;28;20026;-77
2023/08/11 02:47:56;;;;;;;19.10;3.42;;;16.70;99.90;;;;;;4991237;28;20118;-77
2023/08/11 02:50:22;;;;;;;12.45;3.00;;;16.70;99.90;;;;;;4990386;28;20109;-77
2023/08/11 02:52:48;;;;;;;16.17;3.45;;;16.70;99.90;;;;;;4990923;28;20523;-77
2023/08/11 02:55:14;;;;;;;12.95;3.78;;;16.70;99.90;;;;;;4990603;28;20034;-78
2023/08/11 02:57:41;;;;;;;15.63;3.65;;;16.60;99.90;;;;;;4991083;28;20039;-77
2023/08/11 03:00:12;;;;;;;14.77;3.22;;;16.60;99.90;;;;;;4989446;28;20041;-77
2023/08/11 03:02:39;;;;;;;10.63;3.57;;;16.60;99.90;;;;;;4991435;28;20337;-77
2023/08/11 03:05:07;;;;;;;14.52;4.57;;;16.60;99.90;;;;;;4989730;28;20030;-77
2023/08/11 03:07:34;;;;;;;12.45;3.38;;;16.50;99.90;;;;;;4990636;28;20033;-77
2023/08/11 03:10:01;;;;;;;15.40;3.67;;;16.40;99.90;;;;;;4992601;28;20077;-77
2023/08/11 03:12:30;;;;;;;9.02;3.35;;;16.40;99.90;;;;;;5009188;28;20034;-77
2023/08/11 03:14:56;;;;;;;15.10;3.63;;;16.40;99.90;;;;;;4994660;28;20052;-77
2023/08/11 03:17:22;;;;;;;14.48;3.60;;;16.30;99.90;;;;;;4993910;28;20035;-77
2023/08/11 03:19:48;;;;;;;14.95;3.75;;;16.40;99.90;;;;;;4994067;28;20022;-77
2023/08/11 03:22:17;;;;;;;12.85;3.38;;;16.40;99.90;;;;;;4993514;28;20410;-77
2023/08/11 03:24:44;;;;;;;14.93;3.88;;;16.40;99.90;;;;;;4994300;28;20029;-77
2023/08/11 03:27:12;;;;;;;20.67;4.15;;;16.40;99.90;;;;;;4994101;28;20031;-77
2023/08/11 03:29:38;;;;;;;14.27;3.35;;;16.40;99.90;;;;;;4994273;28;20117;-77
2023/08/11 03:32:04;;;;;;;15.52;4.10;;;16.50;99.90;;;;;;4994451;28;20113;-77
2023/08/11 03:34:30;;;;;;;16.13;3.60;;;16.50;99.90;;;;;;4994006;28;20106;-77
2023/08/11 03:36:56;;;;;;;15.05;3.95;;;16.50;99.90;;;;;;4993528;28;20066;-77
2023/08/11 03:39:21;;;;;;;15.40;3.60;;;16.40;99.90;;;;;;4993326;28;20060;-77
2023/08/11 03:41:47;;;;;;;13.82;3.50;;;16.30;99.90;;;;;;4993805;28;20058;-77
2023/08/11 03:44:13;;;;;;;16.88;3.53;;;16.30;99.90;;;;;;4993162;28;20486;-77
2023/08/11 03:46:39;;;;;;;12.95;4.28;;;16.30;99.90;;;;;;4993644;28;20105;-77
2023/08/11 03:49:06;;;;;;;13.23;3.42;;;16.30;99.90;;;;;;4994046;28;20050;-77
2023/08/11 03:51:32;;;;;;;18.63;3.80;;;16.20;99.90;;;;;;4993291;28;20100;-77
2023/08/11 03:54:02;;;;;;;10.35;3.15;;;16.20;99.90;;;;;;4994173;28;20034;-77
2023/08/11 03:56:31;;;;;;;15.82;3.90;;;16.20;99.90;;;;;;4993304;28;20030;-77
2023/08/11 03:58:56;;;;;;;13.38;4.03;;;16.20;99.90;;;;;;4993643;28;20034;-77
2023/08/11 04:01:22;;;;;;;16.77;4.30;;;16.20;99.90;;;;;;4993263;28;20026;-77
2023/08/11 04:03:48;;;;;;;15.82;3.72;;;16.20;99.90;;;;;;4993775;28;20034;-77
2023/08/11 04:06:14;;;;;;;16.00;3.47;;;16.20;99.90;;;;;;4993172;28;20529;-78
2023/08/11 04:08:41;;;;;;;17.42;4.10;;;16.20;99.90;;;;;;4993744;28;20026;-76
2023/08/11 04:11:07;;;;;;;11.82;3.35;;;16.10;99.90;;;;;;4993830;28;20033;-77
2023/08/11 04:13:32;;;;;;;10.82;3.30;;;16.10;99.90;;;;;;4991554;28;20023;-76
2023/08/11 04:15:59;;;;;;;18.73;3.88;;;16.10;99.90;;;;;;4993670;28;20471;-77
2023/08/11 04:18:25;;;;;;;16.15;3.67;;;16.10;99.90;;;;;;4992948;28;20061;-76
2023/08/11 04:20:50;;;;;;;16.38;3.70;;;16.10;99.90;;;;;;4992301;28;20444;-77
2023/08/11 04:23:16;;;;;;;17.85;4.07;;;16.00;99.90;;;;;;4992690;28;20027;-77
2023/08/11 04:25:43;;;;;;;15.50;3.88;;;16.00;99.90;;;;;;4993043;28;20023;-77
2023/08/11 04:28:09;;;;;;;14.80;3.83;;;16.00;99.90;;;;;;4993476;28;20109;-77
2023/08/11 04:30:35;;;;;;;18.10;4.43;;;15.90;99.90;;;;;;4992644;28;20515;-76
2023/08/11 04:33:00;;;;;;;16.42;3.80;;;16.00;99.90;;;;;;4993358;28;20032;-77
2023/08/11 04:35:26;;;;;;;13.73;4.80;;;16.10;99.90;;;;;;5007370;28;20113;-77
2023/08/11 04:37:52;;;;;;;16.83;3.88;;;16.00;99.90;;;;;;4992654;28;20054;-77
2023/08/11 04:40:18;;;;;;;16.98;4.57;;;16.00;99.90;;;;;;4992044;28;20077;-77
2023/08/11 04:42:44;;;;;;;13.18;3.88;;;16.00;99.90;;;;;;4993050;28;20053;-77
2023/08/11 04:45:11;;;;;;;20.27;4.60;;;15.90;99.90;;;;;;4993005;28;20163;-77
2023/08/11 04:47:37;;;;;;;16.67;3.95;;;16.00;99.90;;;;;;4992311;28;20027;-76
2023/08/11 04:50:03;;;;;;;19.92;4.57;;;15.90;99.90;;;;;;4992960;28;20435;-77
2023/08/11 04:52:29;;;;;;;14.57;3.90;;;15.90;99.90;;;;;;4992480;28;20105;-77
2023/08/11 04:54:55;;;;;;;22.00;4.00;;;15.90;99.90;;;;;;4993202;28;20421;-77
2023/08/11 04:57:20;;;;;;;11.82;2.83;;;15.90;99.90;;;;;;4991865;28;20109;-77
2023/08/11 04:59:46;;;;;;;18.20;3.90;;;16.00;99.90;;;;;;4992466;28;20031;-77
2023/08/11 05:02:13;;;;;;;10.73;3.58;;;16.00;99.90;;;;;;4992652;28;20113;-77
2023/08/11 05:04:39;;;;;;;15.88;4.10;;;16.00;99.90;;;;;;4992065;28;20076;-76
2023/08/11 05:07:07;;;;;;;17.05;3.60;;;15.90;99.90;;;;;;4992439;28;20034;-77
2023/08/11 05:09:36;;;;;;;17.90;3.97;;;15.90;99.90;;;;;;4991394;28;20026;-77
2023/08/11 05:12:02;;;;;;;15.75;4.25;;;16.00;99.90;;;;;;4993003;28;20072;-77
2023/08/11 05:14:28;;;;;;;21.50;3.67;;;16.00;99.90;;;;;;4992066;28;20026;-77
2023/08/11 05:16:54;;;;;;;15.52;3.97;;;16.00;99.90;;;;;;4990582;28;20034;-77
2023/08/11 05:19:20;;;;;;;17.88;3.40;;;16.00;99.90;;;;;;4991775;28;20045;-77
2023/08/11 05:21:45;;;;;;;15.43;3.17;;;16.00;99.90;;;;;;4992178;28;20471;-76
2023/08/11 05:24:11;;;;;;;12.23;3.65;;;16.00;99.90;;;;;;4992189;28;20460;-76
2023/08/11 05:26:37;;;;;;;11.68;3.22;;;16.00;99.90;;;;;;4991671;28;20732;-77
2023/08/11 05:29:03;;;;;;;15.90;3.58;;;16.00;99.90;;;;;;4992286;28;20081;-77
2023/08/11 05:31:29;;;;;;;15.55;3.05;;;16.00;99.90;;;;;;4991536;28;20058;-76
2023/08/11 05:33:56;;;;;;;15.13;3.35;;;16.10;99.90;;;;;;4991453;28;20026;-77
2023/08/11 05:36:21;;;;;;;14.80;3.55;;;16.10;99.90;;;;;;4991052;28;20409;-76
2023/08/11 05:38:47;;;;;;;14.55;3.40;;;16.30;99.90;;;;;;4992017;28;20074;-77
2023/08/11 05:41:13;;;;;;;13.48;3.15;;;16.30;99.90;;;;;;4991391;28;20046;-77
2023/08/11 05:43:39;;;;;;;11.55;2.88;;;16.40;99.90;;;;;;4991189;28;20026;-76
2023/08/11 05:46:06;;;;;;;15.38;3.08;;;16.40;99.90;;;;;;4991610;28;20058;-76
2023/08/11 05:48:33;;;;;;;10.88;2.85;;;16.50;99.90;;;;;;4991176;28;20365;-76
2023/08/11 05:50:59;;;;;;;13.43;2.90;;;16.60;99.90;;;;;;4991451;28;20133;-77
2023/08/11 05:53:25;;;;;;;12.73;3.33;;;16.70;99.90;;;;;;4990408;28;20515;-77
2023/08/11 05:55:51;;;;;;;10.45;2.78;;;16.80;99.90;;;;;;4991692;28;20041;-76
2023/08/11 05:58:16;;;;;;;15.90;3.05;;;16.90;99.90;;;;;;4991321;28;20376;-77
2023/08/11 06:00:42;;;;;;;10.93;2.80;;;17.00;99.90;;;;;;4990602;28;20357;-77
2023/08/11 06:03:08;;;;;;;8.10;2.33;;;17.10;99.90;;;;;;4991035;28;20460;-77
2023/08/11 06:05:33;;;;;;;10.13;2.53;;;17.20;99.90;;;;;;4990420;28;20077;-78
2023/08/11 06:07:59;;;;;;;10.23;2.63;;;17.30;99.90;;;;;;4991274;28;20022;-77
2023/08/11 06:10:26;;;;;;;11.85;2.58;;;17.30;99.90;;;;;;4990601;28;20030;-78
2023/08/11 06:12:52;;;;;;;9.82;2.65;;;17.50;99.90;;;;;;4991032;28;20423;-77
2023/08/11 06:15:18;;;;;;;12.13;2.53;;;17.50;99.90;;;;;;4991259;28;20049;-78
2023/08/11 06:17:49;;;;;;;14.70;3.20;;;17.60;99.90;;;;;;5005054;28;20077;-78
2023/08/11 06:20:15;;;;;;;7.88;2.40;;;17.70;99.90;;;;;;4991202;28;20026;-78
2023/08/11 06:22:41;;;;;;;12.32;2.90;;;17.80;99.90;;;;;;4990636;28;20205;-78
2023/08/11 06:25:07;;;;;;;7.75;2.28;;;17.80;99.90;;;;;;4991097;28;20437;-78
2023/08/11 06:27:33;;;;;;;8.25;2.00;;;17.90;99.90;;;;;;4990827;28;20116;-78
2023/08/11 06:29:58;;;;;;;11.80;2.65;;;18.10;99.90;;;;;;5006223;28;20026;-77
2023/08/11 06:32:24;;;;;;;11.48;2.55;;;18.10;99.90;;;;;;4991075;28;20046;-78
2023/08/11 06:34:50;;;;;;;12.77;3.35;;;18.20;99.90;;;;;;4991371;28;20364;-77
2023/08/11 06:37:16;;;;;;;9.50;2.78;;;18.30;99.90;;;;;;4990866;28;20066;-78
2023/08/11 06:39:42;;;;;;;9.55;2.80;;;18.40;99.90;;;;;;4990689;28;20022;-78
2023/08/11 06:42:08;;;;;;;10.13;2.08;;;18.40;99.90;;;;;;4990793;28;20038;-78
2023/08/11 06:44:33;;;;;;;11.93;2.42;;;18.40;99.90;;;;;;4991664;28;20027;-78
2023/08/11 06:46:59;;;;;;;9.63;2.08;;;18.50;99.90;;;;;;5010230;28;20062;-77
2023/08/11 06:49:25;;;;;;;10.13;2.78;;;18.70;99.90;;;;;;4994590;28;20034;-78
2023/08/11 06:51:50;;;;;;;9.73;2.53;;;18.80;99.90;;;;;;4994663;28;20336;-78
2023/08/11 06:54:16;;;;;;;9.52;2.00;;;19.00;99.90;;;;;;4994735;28;20022;-78
2023/08/11 06:56:42;;;;;;;10.35;2.28;;;19.20;99.90;;;;;;4994008;28;20072;-77
2023/08/11 06:59:07;;;;;;;9.73;2.40;;;19.30;99.90;;;;;;4994191;28;20113;-77
2023/08/11 07:01:33;;;;;;;15.02;2.30;;;19.30;99.90;;;;;;4993976;28;20539;-76
2023/08/11 07:03:59;;;;;;;12.20;2.60;;;19.30;99.90;;;;;;4994460;28;20480;-78
2023/08/11 07:06:25;;;;;;;15.50;2.80;;;19.10;99.90;;;;;;4993810;28;20518;-78
2023/08/11 07:08:51;;;;;;;7.95;2.35;;;19.00;99.90;;;;;;4994675;28;20061;-78
2023/08/11 07:11:16;;;;;;;16.40;3.10;;;19.00;99.90;;;;;;4994702;28;20027;-78
2023/08/11 07:13:42;;;;;;;12.00;2.38;;;18.90;99.90;;;;;;4993731;28;20860;-78
2023/08/11 07:16:08;;;;;;;9.45;2.00;;;18.90;99.90;;;;;;4994583;28;20034;-78
2023/08/11 07:18:34;;;;;;;10.40;2.40;;;18.90;99.90;;;;;;4994092;28;20062;-77
2023/08/11 07:21:00;;;;;;;12.10;2.83;;;18.80;99.90;;;;;;4994597;28;20030;-78
2023/08/11 07:23:26;;;;;;;12.05;2.35;;;18.80;99.90;;;;;;4994070;28;20038;-79
2023/08/11 07:25:52;;;;;;;16.02;3.00;;;18.80;99.90;;;;;;4994190;28;20101;-77
2023/08/11 07:28:17;;;;;;;8.32;2.50;;;18.90;99.90;;;;;;4994169;28;20022;-77
2023/08/11 07:30:43;;;;;;;7.97;2.15;;;19.00;99.90;;;;;;4993382;28;20424;-77
2023/08/11 07:33:09;;;;;;;12.10;2.55;;;19.10;99.90;;;;;;4994580;28;20031;-77
2023/08/11 07:35:34;;;;;;;9.05;2.30;;;19.20;99.90;;;;;;4993545;28;20365;-78
2023/08/11 07:38:01;;;;;;;9.52;2.47;;;19.40;99.90;;;;;;4993983;28;20124;-78
2023/08/11 07:40:26;;;;;;;13.60;3.28;;;19.60;99.90;;;;;;4993870;28;20113;-78
2023/08/11 07:42:52;;;;;;;10.93;2.88;;;19.70;99.90;;;;;;4993940;28;20434;-78
2023/08/11 07:45:18;;;;;;;18.42;3.05;;;19.70;99.90;;;;;;4993711;28;20034;-78
2023/08/11 07:47:44;;;;;;;20.00;3.38;;;19.90;99.90;;;;;;4993465;28;20030;-77
2023/08/11 07:50:10;;;;;;;13.68;3.30;;;20.00;99.90;;;;;;4993759;28;20452;-78
2023/08/11 07:52:35;;;;;;;19.40;3.47;;;20.00;99.90;;;;;;4993395;28;20030;-78
2023/08/11 07:55:01;;;;;;;14.57;3.20;;;20.00;99.90;;;;;;4993203;28;20038;-78
2023/08/11 07:57:27;;;;;;;14.15;3.47;;;20.10;99.90;;;;;;4993342;28;20473;-78
2023/08/11 07:59:53;;;;;;;10.60;2.55;;;20.10;99.90;;;;;;4993382;28;20026;-77
2023/08/11 08:02:19;;;;;;;18.50;3.40;;;20.10;99.90;;;;;;4993475;28;20023;-77
2023/08/11 08:04:45;;;;;;;13.10;3.13;;;20.10;99.90;;;;;;4992833;28;20080;-77
2023/08/11 08:07:10;;;;;;;15.50;3.63;;;20.10;99.90;;;;;;4993420;28;20391;-78
2023/08/11 08:09:38;;;;;;;13.25;3.50;;;20.10;99.90;;;;;;4992959;28;20030;-78
2023/08/11 08:12:04;;;;;;;17.70;4.05;;;20.20;99.90;;;;;;4994123;28;20054;-77
2023/08/11 08:14:30;;;;;;;14.18;3.67;;;20.30;99.90;;;;;;4992715;28;20041;-78
2023/08/11 08:16:58;;;;;;;20.83;4.55;;;20.30;99.90;;;;;;4993329;28;20124;-76
2023/08/11 08:19:24;;;;;;;22.10;4.20;;;20.20;99.90;;;;;;4993471;28;20085;-75
2023/08/11 08:21:50;;;;;;;23.75;4.75;;;20.20;99.90;;;;;;4992855;28;20507;-75
2023/08/11 08:24:16;;;;;;;16.55;4.20;;;20.20;99.90;;;;;;4993127;28;20026;-76
2023/08/11 08:26:43;;;;;;;19.25;3.70;;;20.30;99.90;;;;;;4992458;28;20357;-76
2023/08/11 08:29:09;;;;;;;14.38;3.88;;;20.30;99.90;;;;;;4992724;28;20472;-76
2023/08/11 08:31:35;;;;;;;25.35;4.35;;;20.40;99.90;;;;;;4991243;28;20030;-76
2023/08/11 08:34:01;;;;;;;12.82;2.92;;;20.60;99.90;;;;;;4993045;28;20464;-76
2023/08/11 08:36:27;;;;;;;22.13;3.65;;;20.60;99.90;;;;;;4992917;28;20035;-76
2023/08/11 08:38:52;;;;;;;16.30;3.95;;;20.70;99.90;;;;;;4992181;28;20101;-76
2023/08/11 08:41:28;;;;;;;18.83;3.65;;;20.70;99.90;;;;;;4992533;28;20443;-76
2023/08/11 08:43:55;;;;;;;19.95;3.88;;;20.70;99.90;;;;;;4992104;28;20046;-76
2023/08/11 08:46:28;;;;;;;15.80;4.30;;;20.70;99.90;;;;;;4993114;28;20097;-75
2023/08/11 08:49:14;;;;;;;13.32;3.28;;;20.70;99.90;;;;;;4992065;28;20030;-75
2023/08/11 08:51:40;;;;;;;18.20;3.38;;;20.70;99.90;;;;;;4991435;28;20033;-77
2023/08/11 08:54:09;;;;;;;12.45;2.90;;;20.80;99.90;;;;;;4991835;28;20442;-78
2023/08/11 08:56:38;;;;;;;11.32;3.25;;;20.80;99.90;;;;;;4991829;28;20034;-78
2023/08/11 08:59:05;;;;;;;13.10;3.10;;;21.00;99.90;;;;;;4992213;28;20034;-78
2023/08/11 09:01:32;;;;;;;14.02;3.17;;;21.10;99.90;;;;;;4992117;28;20449;-78
2023/08/11 09:03:58;;;;;;;18.65;3.25;;;21.10;99.90;;;;;;4992493;28;20027;-78
2023/08/11 09:06:26;;;;;;;19.33;3.85;;;21.10;99.90;;;;;;4992166;28;20097;-78
2023/08/11 09:08:52;;;;;;;12.73;3.30;;;21.30;99.90;;;;;;4991195;28;20028;-78
2023/08/11 09:11:18;;;;;;;14.65;3.45;;;21.30;99.90;;;;;;4991977;28;20026;-78
2023/08/11 09:13:45;;;;;;;9.10;3.00;;;21.30;99.90;;;;;;4991104;28;20088;-78
2023/08/11 09:16:12;;;;;;;14.40;2.97;;;21.20;99.90;;;;;;4991686;28;20333;-78
2023/08/11 09:18:37;;;;;;;14.20;3.58;;;21.20;99.90;;;;;;4991400;28;20082;-78
2023/08/11 09:21:03;;;;;;;12.32;3.28;;;21.30;99.90;;;;;;4978038;28;20110;-78
2023/08/11 09:23:31;;;;;;;13.95;3.78;;;21.40;99.90;;;;;;4971984;28;20422;-78
2023/08/11 09:25:57;;;;;;;14.60;3.97;;;21.40;99.90;;;;;;4972341;28;20030;-79
2023/08/11 09:28:23;;;;;;;12.38;3.20;;;21.60;99.90;;;;;;4971885;28;20114;-79
2023/08/11 09:30:50;;;;;;;13.70;3.10;;;21.70;99.90;;;;;;4969997;28;20126;-78
2023/08/11 09:33:17;;;;;;;11.95;2.78;;;21.90;99.90;;;;;;4972753;28;20050;-79
2023/08/11 09:35:43;;;;;;;10.77;3.25;;;22.00;99.90;;;;;;4972140;28;20209;-79
2023/08/11 09:38:09;;;;;;;9.93;3.00;;;22.00;99.90;;;;;;4972952;28;20220;-79
2023/08/11 09:40:35;;;;;;;17.83;4.00;;;22.00;99.90;;;;;;4971898;28;20035;-79
2023/08/11 09:43:00;;;;;;;18.48;3.47;;;22.00;99.90;;;;;;4972257;28;20022;-78
2023/08/11 09:45:26;;;;;;;15.57;3.28;;;22.00;99.90;;;;;;4955344;28;20476;-79
2023/08/11 09:47:52;;;;;;;16.55;3.28;;;22.10;99.90;;;;;;4973335;28;20046;-79
2023/08/11 09:50:18;;;;;;;15.75;3.28;;;22.10;99.90;;;;;;4972110;28;20424;-78
2023/08/11 09:52:44;;;;;;;14.95;3.88;;;22.00;99.90;;;;;;4971712;28;20232;-78
2023/08/11 09:55:12;;;;;;;13.90;3.22;;;21.90;99.90;;;;;;4972643;28;20031;-77
2023/08/11 09:57:40;;;;;;;16.38;3.75;;;21.90;99.90;;;;;;4971425;28;20050;-78
2023/08/11 10:00:13;;;;;;;17.27;3.58;;;21.80;99.90;;;;;;4971823;28;20054;-78
2023/08/11 10:03:09;;;;;;;19.08;3.95;;;21.70;99.90;;;;;;4970705;28;20114;-78
2023/08/11 10:05:42;;;;;;;17.20;4.15;;;21.90;99.90;;;;;;4971712;28;20042;-77
2023/08/11 10:08:17;;;;;;;17.35;4.22;;;22.10;99.90;;;;;;4972633;28;20038;-77
2023/08/11 10:10:43;;;;;;;17.45;4.90;;;22.20;99.90;;;;;;4971413;28;20180;-77
2023/08/11 10:13:15;;;;;;;17.00;3.67;;;22.40;99.90;;;;;;4972092;28;20097;-77
2023/08/11 10:15:42;;;;;;;15.00;3.88;;;22.40;99.90;;;;;;4971276;28;20031;-79
2023/08/11 10:18:08;;;;;;;18.75;3.80;;;22.40;99.90;;;;;;4972702;28;20070;-79
2023/08/11 10:20:34;;;;;;;21.70;4.38;;;22.30;99.90;;;;;;4972265;28;20042;-77
2023/08/11 10:23:01;;;;;;;24.88;3.75;;;22.10;99.90;;;;;;4972610;28;20053;-78
2023/08/11 10:25:28;;;;;;;15.73;3.70;;;21.90;99.90;;;;;;4972098;28;20385;-77
2023/08/11 10:27:56;;;;;;;12.63;3.80;;;21.80;99.90;;;;;;4971351;28;20720;-75
2023/08/11 10:30:23;;;;;;;20.92;4.50;;;21.60;99.90;;;;;;4970726;28;20429;-81
2023/08/11 10:33:02;;;;;;;13.52;4.00;;;21.60;99.90;;;;;;4972114;28;20027;-77
2023/08/11 10:35:34;;;;;;;14.23;4.40;;;21.50;99.90;;;;;;4972818;28;20058;-78
2023/08/11 10:38:00;;;;;;;20.23;4.70;;;21.50;99.90;;;;;;4971973;28;20055;-77
2023/08/11 10:40:37;;;;;;;17.50;4.30;;;21.50;99.90;;;;;;4972530;28;20041;-77
2023/08/11 10:43:04;;;;;;;20.55;3.97;;;21.50;99.90;;;;;;4972327;28;20392;-76
2023/08/11 10:45:34;;;;;;;21.95;3.95;;;21.50;99.90;;;;;;4971733;28;20019;-77
2023/08/11 10:48:07;;;;;;;15.05;3.70;;;21.50;99.90;;;;;;4971089;28;20123;-75
2023/08/11 10:50:34;;;;;;;20.02;4.60;;;21.50;99.90;;;;;;4970267;28;20058;-77
2023/08/11 10:53:20;;;;;;;26.98;4.30;;;21.50;99.90;;;;;;4971335;28;20102;-77
2023/08/11 10:56:02;;;;;;;13.80;3.83;;;21.50;99.90;;;;;;4969458;28;20030;-75
2023/08/11 10:58:31;;;;;;;18.15;4.43;;;21.40;99.90;;;;;;4971570;28;20101;-76
2023/08/11 11:00:59;;;;;;;17.02;4.63;;;21.40;99.90;;;;;;4969324;28;20027;-76
2023/08/11 11:03:25;;;;;;;16.88;3.80;;;21.50;99.90;;;;;;4971404;28;20081;-76
2023/08/11 11:05:51;;;;;;;19.95;3.95;;;21.50;99.90;;;;;;4970743;28;20104;-76
2023/08/11 11:08:17;;;;;;;17.60;3.35;;;21.60;99.90;;;;;;4971432;28;20034;-77
2023/08/11 11:10:43;;;;;;;21.10;3.58;;;21.80;99.90;;;;;;4971439;28;20027;-76
2023/08/11 11:13:09;;;;;;;17.05;3.42;;;22.00;99.90;;;;;;4971908;28;20069;-76
2023/08/11 11:15:35;;;;;;;10.25;2.90;;;22.20;99.90;;;;;;4971352;28;20054;-77
2023/08/11 11:18:01;;;;;;;16.38;3.40;;;22.40;99.90;;;;;;4971177;28;20046;-77
2023/08/11 11:20:27;;;;;;;13.85;3.33;;;22.50;99.90;;;;;;4971480;28;20039;-77
2023/08/11 11:22:54;;;;;;;10.30;3.05;;;22.70;99.90;;;;;;4971023;28;20034;-77
2023/08/11 11:25:20;;;;;;;12.77;3.15;;;22.70;99.90;;;;;;4971182;28;20065;-76
2023/08/11 11:27:46;;;;;;;14.95;3.20;;;22.60;99.90;;;;;;4969228;28;20364;-76
2023/08/11 11:30:13;;;;;;;11.88;3.15;;;22.60;99.90;;;;;;4971690;28;20031;-78
2023/08/11 11:32:40;;;;;;;16.00;3.35;;;22.70;99.90;;;;;;4974619;28;20049;-77
2023/08/11 11:35:07;;;;;;;16.30;3.72;;;22.50;99.90;;;;;;4974978;28;20032;-77
2023/08/11 11:37:34;;;;;;;16.17;3.05;;;22.40;99.90;;;;;;4973431;28;20145;-78
2023/08/11 11:40:04;;;;;;;14.68;3.45;;;22.40;99.90;;;;;;4974152;28;20333;-77
2023/08/11 11:42:30;;;;;;;15.63;3.33;;;22.40;99.90;;;;;;4975202;28;20045;-78
2023/08/11 11:44:57;;;;;;;21.15;4.18;;;22.40;99.90;;;;;;4974142;28;20050;-78
2023/08/11 11:47:23;;;;;;;14.02;3.63;;;22.40;99.90;;;;;;4975234;28;20379;-77
2023/08/11 11:49:55;;;;;;;14.43;3.30;;;22.50;99.90;;;;;;4974378;28;20026;-78
2023/08/11 11:52:21;;;;;;;15.60;4.13;;;22.50;99.90;;;;;;4974334;28;20031;-78
2023/08/11 11:54:54;;;;;;;17.58;3.70;;;22.50;99.90;;;;;;4974254;28;20109;-78
2023/08/11 11:57:23;;;;;;;14.68;3.50;;;22.60;99.90;;;;;;4974210;28;20085;-77
2023/08/11 11:59:50;;;;;;;17.98;3.88;;;22.50;99.90;;;;;;4974311;28;20058;-79
2023/08/11 12:02:16;;;;;;;14.38;3.75;;;22.60;99.90;;;;;;4974468;28;20389;-78
2023/08/11 12:04:46;;;;;;;15.98;3.97;;;22.70;99.90;;;;;;4973762;28;20034;-78
2023/08/11 12:07:31;;;;;;;20.55;4.45;;;22.70;99.90;;;;;;4974373;28;20042;-78
2023/08/11 12:09:57;;;;;;;16.70;3.42;;;22.90;99.90;;;;;;4973533;28;20027;-78
2023/08/11 12:12:29;;;;;;;15.10;3.75;;;23.00;99.90;;;;;;4974373;28;20116;-78
2023/08/11 12:15:05;;;;;;;16.10;3.35;;;22.90;99.90;;;;;;4974161;28;20037;-78
2023/08/11 12:17:33;;;;;;;26.85;4.55;;;22.90;99.90;;;;;;4974122;28;20443;-78
2023/08/11 12:20:08;;;;;;;21.08;3.92;;;22.90;99.90;;;;;;4974450;28;20201;-78
2023/08/11 12:22:33;;;;;;;21.55;4.07;;;23.00;99.90;;;;;;4972843;28;20506;-78
2023/08/11 12:24:59;;;;;;;21.40;4.53;;;22.90;99.90;;;;;;4973389;28;20113;-78
2023/08/11 12:27:25;;;;;;;13.60;3.58;;;23.00;99.90;;;;;;4972462;28;20064;-78
2023/08/11 12:29:51;;;;;;;14.45;3.65;;;23.00;99.90;;;;;;4972943;28;20363;-78
2023/08/11 12:32:17;;;;;;;23.70;4.45;;;22.90;99.90;;;;;;4974157;28;20026;-78
2023/08/11 12:34:42;;;;;;;11.30;3.60;;;22.80;99.90;;;;;;4972902;28;20027;-79
2023/08/11 12:37:08;;;;;;;17.85;4.40;;;22.60;99.90;;;;;;4973213;28;20062;-78